sensor_id;sensor_type;location;lat;lon;timestamp;pressure;altitude;pressure_sealevel;temperature;humidity
76156;BME280;64906;51.290;7.348;2023-07-13T00:00:35;98618.94;;;25.80;42.50
76156;BME280;64906;51.290;7.348;2023-07-13T00:03:01;98624.31;;;25.77;42.25
76156;BME280;64906;51.290;7.348;2023-07-13T00:05:26;98619.94;;;25.76;42.47
76156;BME280;64906;51.290;7.348;2023-07-13T00:07:52;98616.69;;;25.74;42.24
76156;BME280;64906;51.290;7.348;2023-07-13T00:10:19;98623.94;;;26.04;41.93
76156;BME280;64906;51.290;7.348;2023-07-13T00:12:45;98622.75;;;26.13;41.66
76156;BME280;64906;51.290;7.348;2023-07-13T00:15:20;98628.41;;;26.17;41.57
76156;BME280;64906;51.290;7.348;2023-07-13T00:17:48;98628.41;;;26.17;41.64
76156;BME280;64906;51.290;7.348;2023-07-13T00:20:13;98628.28;;;26.13;41.39
76156;BME280;64906;51.290;7.348;2023-07-13T00:22:38;98631.03;;;26.13;41.37
76156;BME280;64906;51.290;7.348;2023-07-13T00:25:04;98624.88;;;26.08;41.61
76156;BME280;64906;51.290;7.348;2023-07-13T00:27:29;98620.66;;;26.10;41.53
76156;BME280;64906;51.290;7.348;2023-07-13T00:29:57;98618.47;;;26.16;41.54
76156;BME280;64906;51.290;7.348;2023-07-13T00:32:22;98615.81;;;25.90;41.84
76156;BME280;64906;51.290;7.348;2023-07-13T00:34:47;98622.81;;;25.88;41.75
76156;BME280;64906;51.290;7.348;2023-07-13T00:37:12;98623.59;;;26.05;41.54
76156;BME280;64906;51.290;7.348;2023-07-13T00:39:38;98620.34;;;26.03;41.52
76156;BME280;64906;51.290;7.348;2023-07-13T00:42:04;98620.19;;;26.29;41.06
76156;BME280;64906;51.290;7.348;2023-07-13T00:44:30;98615.78;;;26.07;41.53
76156;BME280;64906;51.290;7.348;2023-07-13T00:46:55;98625.88;;;26.03;41.43
76156;BME280;64906;51.290;7.348;2023-07-13T00:49:24;98618.84;;;26.06;41.23
76156;BME280;64906;51.290;7.348;2023-07-13T00:51:58;98616.09;;;26.06;41.28
76156;BME280;64906;51.290;7.348;2023-07-13T00:54:28;98609.56;;;26.10;41.22
76156;BME280;64906;51.290;7.348;2023-07-13T00:57:02;98608.94;;;26.05;41.32
76156;BME280;64906;51.290;7.348;2023-07-13T00:59:28;98614.00;;;26.03;41.27
76156;BME280;64906;51.290;7.348;2023-07-13T01:01:54;98606.19;;;26.05;41.15
76156;BME280;64906;51.290;7.348;2023-07-13T01:04:20;98602.41;;;26.09;41.38
76156;BME280;64906;51.290;7.348;2023-07-13T01:06:45;98608.13;;;26.04;41.48
76156;BME280;64906;51.290;7.348;2023-07-13T01:09:12;98603.75;;;26.03;41.38
76156;BME280;64906;51.290;7.348;2023-07-13T01:11:38;98610.38;;;26.11;41.12
76156;BME280;64906;51.290;7.348;2023-07-13T01:14:04;98608.78;;;26.01;41.40
76156;BME280;64906;51.290;7.348;2023-07-13T01:16:34;98604.38;;;26.00;41.47
76156;BME280;64906;51.290;7.348;2023-07-13T01:19:01;98598.22;;;25.95;41.40
76156;BME280;64906;51.290;7.348;2023-07-13T01:21:29;98604.72;;;25.99;41.31
76156;BME280;64906;51.290;7.348;2023-07-13T01:23:57;98607.00;;;25.97;41.37
76156;BME280;64906;51.290;7.348;2023-07-13T01:26:23;98604.91;;;25.94;41.57
76156;BME280;64906;51.290;7.348;2023-07-13T01:28:48;98607.69;;;25.94;41.51
76156;BME280;64906;51.290;7.348;2023-07-13T01:31:14;98608.34;;;25.91;41.50
76156;BME280;64906;51.290;7.348;2023-07-13T01:33:40;98603.59;;;25.91;41.58
76156;BME280;64906;51.290;7.348;2023-07-13T01:36:07;98600.84;;;25.91;41.53
76156;BME280;64906;51.290;7.348;2023-07-13T01:38:33;98596.72;;;26.06;41.27
76156;BME280;64906;51.290;7.348;2023-07-13T01:40:58;98599.63;;;26.09;40.98
76156;BME280;64906;51.290;7.348;2023-07-13T01:43:24;98600.94;;;26.12;40.87
76156;BME280;64906;51.290;7.348;2023-07-13T01:45:49;98605.59;;;25.91;41.37
76156;BME280;64906;51.290;7.348;2023-07-13T01:48:15;98602.31;;;25.89;41.54
76156;BME280;64906;51.290;7.348;2023-07-13T01:50:40;98607.38;;;25.87;41.42
76156;BME280;64906;51.290;7.348;2023-07-13T01:53:05;98609.97;;;25.92;41.27
76156;BME280;64906;51.290;7.348;2023-07-13T01:55:31;98607.84;;;25.89;41.39
76156;BME280;64906;51.290;7.348;2023-07-13T01:57:57;98607.16;;;26.00;41.08
76156;BME280;64906;51.290;7.348;2023-07-13T02:00:22;98615.44;;;26.09;40.89
76156;BME280;64906;51.290;7.348;2023-07-13T02:02:48;98616.09;;;26.06;41.27
76156;BME280;64906;51.290;7.348;2023-07-13T02:05:13;98612.19;;;26.07;40.83
76156;BME280;64906;51.290;7.348;2023-07-13T02:07:39;98611.03;;;26.08;41.05
76156;BME280;64906;51.290;7.348;2023-07-13T02:10:06;98614.78;;;26.12;40.94
76156;BME280;64906;51.290;7.348;2023-07-13T02:12:32;98615.44;;;26.09;41.03
76156;BME280;64906;51.290;7.348;2023-07-13T02:14:58;98619.69;;;26.06;40.85
76156;BME280;64906;51.290;7.348;2023-07-13T02:17:23;98613.66;;;26.04;40.99
76156;BME280;64906;51.290;7.348;2023-07-13T02:19:48;98618.41;;;26.04;40.97
76156;BME280;64906;51.290;7.348;2023-07-13T02:22:13;98620.34;;;26.03;41.06
76156;BME280;64906;51.290;7.348;2023-07-13T02:24:39;98611.03;;;25.99;41.22
76156;BME280;64906;51.290;7.348;2023-07-13T02:27:05;98611.72;;;25.96;41.05
76156;BME280;64906;51.290;7.348;2023-07-13T02:29:30;98611.88;;;26.00;41.06
76156;BME280;64906;51.290;7.348;2023-07-13T02:31:55;98611.22;;;26.03;40.84
76156;BME280;64906;51.290;7.348;2023-07-13T02:34:21;98614.00;;;26.03;40.80
76156;BME280;64906;51.290;7.348;2023-07-13T02:36:46;98618.75;;;26.02;40.65
76156;BME280;64906;51.290;7.348;2023-07-13T02:39:12;98618.75;;;26.02;40.85
76156;BME280;64906;51.290;7.348;2023-07-13T02:41:38;98613.69;;;25.96;40.74
76156;BME280;64906;51.290;7.348;2023-07-13T02:44:03;98614.81;;;25.95;41.01
76156;BME280;64906;51.290;7.348;2023-07-13T02:46:33;98602.00;;;25.90;41.13
76156;BME280;64906;51.290;7.348;2023-07-13T02:48:59;98612.38;;;25.93;40.97
76156;BME280;64906;51.290;7.348;2023-07-13T02:51:24;98614.22;;;25.89;41.00
76156;BME280;64906;51.290;7.348;2023-07-13T02:53:49;98615.50;;;25.92;40.98
76156;BME280;64906;51.290;7.348;2023-07-13T02:56:15;98618.25;;;25.92;41.05
76156;BME280;64906;51.290;7.348;2023-07-13T02:58:40;98620.03;;;25.88;41.12
76156;BME280;64906;51.290;7.348;2023-07-13T03:01:10;98608.97;;;25.88;41.09
76156;BME280;64906;51.290;7.348;2023-07-13T03:03:35;98619.41;;;25.91;40.86
76156;BME280;64906;51.290;7.348;2023-07-13T03:06:02;98617.78;;;25.90;41.07
76156;BME280;64906;51.290;7.348;2023-07-13T03:08:30;98606.88;;;25.85;41.13
76156;BME280;64906;51.290;7.348;2023-07-13T03:11:05;98606.38;;;25.91;40.87
76156;BME280;64906;51.290;7.348;2023-07-13T03:13:31;98614.06;;;25.86;40.97
76156;BME280;64906;51.290;7.348;2023-07-13T03:15:56;98613.88;;;25.91;41.05
76156;BME280;64906;51.290;7.348;2023-07-13T03:18:21;98624.94;;;25.91;40.79
76156;BME280;64906;51.290;7.348;2023-07-13T03:20:50;98619.41;;;25.91;40.86
76156;BME280;64906;51.290;7.348;2023-07-13T03:23:16;98626.25;;;25.85;41.21
76156;BME280;64906;51.290;7.348;2023-07-13T03:25:41;98631.44;;;25.86;40.80
76156;BME280;64906;51.290;7.348;2023-07-13T03:28:06;98627.56;;;25.87;41.07
76156;BME280;64906;51.290;7.348;2023-07-13T03:30:32;98627.06;;;25.85;41.15
76156;BME280;64906;51.290;7.348;2023-07-13T03:32:57;98616.81;;;25.86;41.09
76156;BME280;64906;51.290;7.348;2023-07-13T03:35:22;98626.41;;;25.88;41.00
76156;BME280;64906;51.290;7.348;2023-07-13T03:37:47;98633.41;;;25.86;41.19
76156;BME280;64906;51.290;7.348;2023-07-13T03:40:13;98633.41;;;25.86;40.97
76156;BME280;64906;51.290;7.348;2023-07-13T03:42:38;98633.41;;;25.86;40.99
76156;BME280;64906;51.290;7.348;2023-07-13T03:45:04;98633.09;;;25.87;41.07
76156;BME280;64906;51.290;7.348;2023-07-13T03:47:29;98642.38;;;25.83;41.07
76156;BME280;64906;51.290;7.348;2023-07-13T03:49:54;98634.88;;;25.83;40.94
76156;BME280;64906;51.290;7.348;2023-07-13T03:52:20;98638.78;;;25.82;40.80
76156;BME280;64906;51.290;7.348;2023-07-13T03:54:45;98646.09;;;25.87;40.92
76156;BME280;64906;51.290;7.348;2023-07-13T03:57:10;98644.47;;;25.86;40.95
76156;BME280;64906;51.290;7.348;2023-07-13T03:59:36;98646.28;;;25.82;41.20
76156;BME280;64906;51.290;7.348;2023-07-13T04:02:01;98653.91;;;25.85;40.94
76156;BME280;64906;51.290;7.348;2023-07-13T04:04:30;98656.34;;;25.86;41.00
76156;BME280;64906;51.290;7.348;2023-07-13T04:06:57;98659.59;;;25.88;40.90
76156;BME280;64906;51.290;7.348;2023-07-13T04:09:24;98651.63;;;25.87;40.68
76156;BME280;64906;51.290;7.348;2023-07-13T04:11:49;98662.03;;;25.90;41.00
76156;BME280;64906;51.290;7.348;2023-07-13T04:14:15;98655.38;;;25.91;40.67
76156;BME280;64906;51.290;7.348;2023-07-13T04:16:40;98657.50;;;25.85;40.83
76156;BME280;64906;51.290;7.348;2023-07-13T04:19:05;98657.66;;;25.89;40.61
76156;BME280;64906;51.290;7.348;2023-07-13T04:21:31;98657.16;;;25.87;40.64
76156;BME280;64906;51.290;7.348;2023-07-13T04:23:57;98657.31;;;25.90;40.74
76156;BME280;64906;51.290;7.348;2023-07-13T04:26:23;98658.47;;;25.89;40.69
76156;BME280;64906;51.290;7.348;2023-07-13T04:28:49;98669.19;;;25.91;40.69
76156;BME280;64906;51.290;7.348;2023-07-13T04:31:15;98654.88;;;25.89;40.78
76156;BME280;64906;51.290;7.348;2023-07-13T04:33:40;98660.41;;;25.89;40.85
76156;BME280;64906;51.290;7.348;2023-07-13T04:36:05;98666.44;;;25.91;40.54
76156;BME280;64906;51.290;7.348;2023-07-13T04:38:32;98654.38;;;25.87;40.82
76156;BME280;64906;51.290;7.348;2023-07-13T04:41:04;98652.94;;;25.89;40.53
76156;BME280;64906;51.290;7.348;2023-07-13T04:43:30;98656.50;;;25.90;40.72
76156;BME280;64906;51.290;7.348;2023-07-13T04:45:56;98656.50;;;25.90;40.78
76156;BME280;64906;51.290;7.348;2023-07-13T04:48:22;98657.31;;;25.90;40.79
76156;BME280;64906;51.290;7.348;2023-07-13T04:50:48;98664.78;;;25.90;40.65
76156;BME280;64906;51.290;7.348;2023-07-13T04:53:19;98661.22;;;25.89;40.73
76156;BME280;64906;51.290;7.348;2023-07-13T04:55:44;98654.88;;;25.89;40.69
76156;BME280;64906;51.290;7.348;2023-07-13T04:58:09;98665.28;;;25.92;40.51
76156;BME280;64906;51.290;7.348;2023-07-13T05:00:34;98662.84;;;25.90;40.56
76156;BME280;64906;51.290;7.348;2023-07-13T05:03:00;98664.44;;;25.91;40.40
76156;BME280;64906;51.290;7.348;2023-07-13T05:05:26;98668.53;;;25.94;40.46
76156;BME280;64906;51.290;7.348;2023-07-13T05:07:52;98669.19;;;25.91;40.50
76156;BME280;64906;51.290;7.348;2023-07-13T05:10:18;98673.09;;;25.90;40.71
76156;BME280;64906;51.290;7.348;2023-07-13T05:12:43;98670.66;;;25.88;40.53
76156;BME280;64906;51.290;7.348;2023-07-13T05:15:09;98680.25;;;25.91;40.77
76156;BME280;64906;51.290;7.348;2023-07-13T05:17:34;98680.25;;;25.91;40.54
76156;BME280;64906;51.290;7.348;2023-07-13T05:20:00;98680.72;;;25.93;40.47
76156;BME280;64906;51.290;7.348;2023-07-13T05:22:25;98681.88;;;25.92;40.69
76156;BME280;64906;51.290;7.348;2023-07-13T05:24:50;98686.72;;;25.95;40.52
76156;BME280;64906;51.290;7.348;2023-07-13T05:27:15;98689.00;;;25.93;40.44
76156;BME280;64906;51.290;7.348;2023-07-13T05:29:41;98691.44;;;25.94;40.54
76156;BME280;64906;51.290;7.348;2023-07-13T05:32:06;98685.91;;;25.94;40.43
76156;BME280;64906;51.290;7.348;2023-07-13T05:34:31;98687.56;;;25.95;40.67
76156;BME280;64906;51.290;7.348;2023-07-13T05:36:57;98693.88;;;26.04;39.95
76156;BME280;64906;51.290;7.348;2023-07-13T05:39:22;98697.63;;;26.00;40.39
76156;BME280;64906;51.290;7.348;2023-07-13T05:41:48;98698.13;;;26.02;40.47
76156;BME280;64906;51.290;7.348;2023-07-13T05:44:13;98697.47;;;26.05;40.23
76156;BME280;64906;51.290;7.348;2023-07-13T05:46:39;98698.28;;;26.14;39.90
76156;BME280;64906;51.290;7.348;2023-07-13T05:49:04;98709.50;;;26.09;40.12
76156;BME280;64906;51.290;7.348;2023-07-13T05:51:29;98709.50;;;26.09;40.20
76156;BME280;64906;51.290;7.348;2023-07-13T05:53:55;98701.81;;;26.14;40.09
76156;BME280;64906;51.290;7.348;2023-07-13T05:56:20;98707.53;;;26.09;40.06
76156;BME280;64906;51.290;7.348;2023-07-13T05:58:48;98702.50;;;26.11;39.94
76156;BME280;64906;51.290;7.348;2023-07-13T06:01:14;98706.88;;;26.12;39.94
76156;BME280;64906;51.290;7.348;2023-07-13T06:03:40;98708.03;;;26.11;40.05
76156;BME280;64906;51.290;7.348;2023-07-13T06:06:07;98705.44;;;26.06;40.41
76156;BME280;64906;51.290;7.348;2023-07-13T06:08:32;98711.94;;;26.10;39.96
76156;BME280;64906;51.290;7.348;2023-07-13T06:11:17;98720.69;;;26.12;40.13
76156;BME280;64906;51.290;7.348;2023-07-13T06:13:43;98733.75;;;26.12;40.17
76156;BME280;64906;51.290;7.348;2023-07-13T06:16:08;98720.53;;;26.17;40.09
76156;BME280;64906;51.290;7.348;2023-07-13T06:18:35;98720.06;;;26.15;39.88
76156;BME280;64906;51.290;7.348;2023-07-13T06:21:05;98735.34;;;26.13;40.23
76156;BME280;64906;51.290;7.348;2023-07-13T06:23:30;98731.25;;;26.19;39.87
76156;BME280;64906;51.290;7.348;2023-07-13T06:25:56;98733.25;;;26.18;39.84
76156;BME280;64906;51.290;7.348;2023-07-13T06:28:21;98740.03;;;26.21;39.62
76156;BME280;64906;51.290;7.348;2023-07-13T06:30:46;98737.00;;;26.14;40.00
76156;BME280;64906;51.290;7.348;2023-07-13T06:33:12;98749.50;;;26.20;40.34
76156;BME280;64906;51.290;7.348;2023-07-13T06:35:37;98752.13;;;26.16;39.86
76156;BME280;64906;51.290;7.348;2023-07-13T06:38:02;98751.28;;;26.16;39.79
76156;BME280;64906;51.290;7.348;2023-07-13T06:40:27;98753.13;;;26.12;40.09
76156;BME280;64906;51.290;7.348;2023-07-13T06:42:54;98749.84;;;26.18;39.97
76156;BME280;64906;51.290;7.348;2023-07-13T06:45:19;98751.78;;;26.18;40.04
76156;BME280;64906;51.290;7.348;2023-07-13T06:47:44;98755.03;;;26.20;39.95
76156;BME280;64906;51.290;7.348;2023-07-13T06:50:09;98766.09;;;26.20;39.93
76156;BME280;64906;51.290;7.348;2023-07-13T06:52:35;98762.84;;;26.26;39.83
76156;BME280;64906;51.290;7.348;2023-07-13T06:55:00;98765.75;;;26.30;39.85
76156;BME280;64906;51.290;7.348;2023-07-13T06:57:26;98765.59;;;26.26;39.70
76156;BME280;64906;51.290;7.348;2023-07-13T06:59:51;98772.75;;;26.27;39.80
76156;BME280;64906;51.290;7.348;2023-07-13T07:02:16;98765.09;;;26.33;39.58
76156;BME280;64906;51.290;7.348;2023-07-13T07:04:42;98772.22;;;26.34;39.67
76156;BME280;64906;51.290;7.348;2023-07-13T07:07:07;98778.09;;;26.32;39.55
76156;BME280;64906;51.290;7.348;2023-07-13T07:09:32;98770.63;;;26.33;39.72
76156;BME280;64906;51.290;7.348;2023-07-13T07:11:58;98766.03;;;26.37;39.78
76156;BME280;64906;51.290;7.348;2023-07-13T07:14:23;98772.53;;;26.41;39.54
76156;BME280;64906;51.290;7.348;2023-07-13T07:16:49;98770.25;;;26.43;39.49
76156;BME280;64906;51.290;7.348;2023-07-13T07:19:15;98783.28;;;26.42;39.47
76156;BME280;64906;51.290;7.348;2023-07-13T07:21:40;98786.72;;;26.39;39.61
76156;BME280;64906;51.290;7.348;2023-07-13T07:24:06;98785.72;;;26.44;39.34
76156;BME280;64906;51.290;7.348;2023-07-13T07:26:31;98776.88;;;26.51;39.33
76156;BME280;64906;51.290;7.348;2023-07-13T07:28:57;98781.75;;;26.54;39.25
76156;BME280;64906;51.290;7.348;2023-07-13T07:31:22;98771.84;;;26.53;39.38
76156;BME280;64906;51.290;7.348;2023-07-13T07:33:47;98772.66;;;26.53;39.36
76156;BME280;64906;51.290;7.348;2023-07-13T07:36:15;98780.47;;;26.51;39.14
76156;BME280;64906;51.290;7.348;2023-07-13T07:38:41;98770.84;;;26.57;39.20
76156;BME280;64906;51.290;7.348;2023-07-13T07:41:06;98779.00;;;26.54;39.29
76156;BME280;64906;51.290;7.348;2023-07-13T07:43:32;98780.78;;;26.58;39.35
76156;BME280;64906;51.290;7.348;2023-07-13T07:45:58;98775.69;;;26.60;39.37
76156;BME280;64906;51.290;7.348;2023-07-13T07:48:23;98778.13;;;26.62;39.13
76156;BME280;64906;51.290;7.348;2023-07-13T07:50:48;98780.56;;;26.63;39.18
76156;BME280;64906;51.290;7.348;2023-07-13T07:53:14;98780.56;;;26.63;39.39
76156;BME280;64906;51.290;7.348;2023-07-13T07:55:39;98781.09;;;26.65;39.12
76156;BME280;64906;51.290;7.348;2023-07-13T07:58:05;98779.63;;;26.59;39.34
76156;BME280;64906;51.290;7.348;2023-07-13T08:00:31;98781.72;;;26.62;39.55
76156;BME280;64906;51.290;7.348;2023-07-13T08:02:57;98778.31;;;26.65;39.14
76156;BME280;64906;51.290;7.348;2023-07-13T08:05:23;98772.31;;;26.55;39.22
76156;BME280;64906;51.290;7.348;2023-07-13T08:07:49;98777.97;;;26.67;39.09
76156;BME280;64906;51.290;7.348;2023-07-13T08:10:14;98782.41;;;26.59;39.50
76156;BME280;64906;51.290;7.348;2023-07-13T08:12:40;98784.84;;;26.52;39.60
76156;BME280;64906;51.290;7.348;2023-07-13T08:15:07;98781.56;;;26.67;39.25
76156;BME280;64906;51.290;7.348;2023-07-13T08:17:34;98779.31;;;26.52;39.66
76156;BME280;64906;51.290;7.348;2023-07-13T08:19:59;98776.72;;;26.47;39.74
76156;BME280;64906;51.290;7.348;2023-07-13T08:22:24;98778.38;;;26.48;39.85
76156;BME280;64906;51.290;7.348;2023-07-13T08:24:50;98778.72;;;26.47;39.93
76156;BME280;64906;51.290;7.348;2023-07-13T08:27:22;98778.53;;;26.52;39.83
76156;BME280;64906;51.290;7.348;2023-07-13T08:29:48;98780.00;;;26.49;39.80
76156;BME280;64906;51.290;7.348;2023-07-13T08:32:14;98774.75;;;26.56;39.80
76156;BME280;64906;51.290;7.348;2023-07-13T08:34:39;98775.22;;;26.67;39.46
76156;BME280;64906;51.290;7.348;2023-07-13T08:37:05;98777.44;;;26.73;39.37
76156;BME280;64906;51.290;7.348;2023-07-13T08:39:32;98776.59;;;26.81;39.11
76156;BME280;64906;51.290;7.348;2023-07-13T08:42:04;98777.56;;;26.85;39.34
76156;BME280;64906;51.290;7.348;2023-07-13T08:44:57;98777.06;;;26.83;39.11
76156;BME280;64906;51.290;7.348;2023-07-13T08:47:29;98774.75;;;26.94;39.98
76156;BME280;64906;51.290;7.348;2023-07-13T08:49:55;98764.13;;;26.67;41.05
76156;BME280;64906;51.290;7.348;2023-07-13T08:52:36;98763.94;;;26.63;41.49
76156;BME280;64906;51.290;7.348;2023-07-13T08:55:12;98759.41;;;26.59;41.35
76156;BME280;64906;51.290;7.348;2023-07-13T08:57:39;98764.44;;;26.74;41.31
76156;BME280;64906;51.290;7.348;2023-07-13T09:00:10;98764.38;;;26.82;41.08
76156;BME280;64906;51.290;7.348;2023-07-13T09:02:48;98761.63;;;26.82;41.28
76156;BME280;64906;51.290;7.348;2023-07-13T09:05:24;98760.66;;;26.78;41.23
76156;BME280;64906;51.290;7.348;2023-07-13T09:08:10;98756.75;;;26.79;41.30
76156;BME280;64906;51.290;7.348;2023-07-13T09:10:44;98754.16;;;26.74;41.37
76156;BME280;64906;51.290;7.348;2023-07-13T09:15:53;98770.94;;;26.78;41.16
76156;BME280;64906;51.290;7.348;2023-07-13T09:18:33;98775.94;;;26.84;41.03
76156;BME280;64906;51.290;7.348;2023-07-13T09:23:40;98774.13;;;26.88;40.66
76156;BME280;64906;51.290;7.348;2023-07-13T09:26:20;98768.56;;;26.88;40.70
76156;BME280;64906;51.290;7.348;2023-07-13T09:28:52;98767.91;;;26.91;40.45
76156;BME280;64906;51.290;7.348;2023-07-13T09:31:28;98765.94;;;26.92;40.75
76156;BME280;64906;51.290;7.348;2023-07-13T09:33:59;98772.50;;;26.87;41.04
76156;BME280;64906;51.290;7.348;2023-07-13T09:36:27;98782.72;;;26.95;41.30
76156;BME280;64906;51.290;7.348;2023-07-13T09:41:45;98779.94;;;26.95;41.43
76156;BME280;64906;51.290;7.348;2023-07-13T09:44:14;98780.53;;;27.01;41.30
76156;BME280;64906;51.290;7.348;2023-07-13T09:46:45;98781.66;;;27.08;41.11
76156;BME280;64906;51.290;7.348;2023-07-13T09:49:11;98784.22;;;27.13;41.04
76156;BME280;64906;51.290;7.348;2023-07-13T09:51:46;98789.78;;;27.13;40.87
76156;BME280;64906;51.290;7.348;2023-07-13T09:54:23;98780.63;;;27.13;40.75
76156;BME280;64906;51.290;7.348;2023-07-13T09:56:57;98788.13;;;27.12;40.67
76156;BME280;64906;51.290;7.348;2023-07-13T09:59:26;98791.56;;;27.09;40.64
76156;BME280;64906;51.290;7.348;2023-07-13T10:01:52;98788.13;;;27.12;40.67
76156;BME280;64906;51.290;7.348;2023-07-13T10:04:18;98801.78;;;27.17;40.53
76156;BME280;64906;51.290;7.348;2023-07-13T10:06:45;98791.38;;;27.14;40.65
76156;BME280;64906;51.290;7.348;2023-07-13T10:09:15;98797.41;;;27.16;40.43
76156;BME280;64906;51.290;7.348;2023-07-13T10:11:41;98795.59;;;27.20;40.35
76156;BME280;64906;51.290;7.348;2023-07-13T10:14:14;98799.50;;;27.19;40.04
76156;BME280;64906;51.290;7.348;2023-07-13T10:16:41;98784.19;;;27.22;39.97
76156;BME280;64906;51.290;7.348;2023-07-13T10:19:12;98798.47;;;27.24;39.97
76156;BME280;64906;51.290;7.348;2023-07-13T10:22:01;98802.28;;;27.19;39.81
76156;BME280;64906;51.290;7.348;2023-07-13T10:24:32;98796.72;;;27.19;39.92
76156;BME280;64906;51.290;7.348;2023-07-13T10:27:05;98801.44;;;27.19;39.67
76156;BME280;64906;51.290;7.348;2023-07-13T10:29:38;98799.66;;;27.23;39.80
76156;BME280;64906;51.290;7.348;2023-07-13T10:32:10;98801.59;;;27.22;40.01
76156;BME280;64906;51.290;7.348;2023-07-13T10:34:36;98807.47;;;27.21;39.86
76156;BME280;64906;51.290;7.348;2023-07-13T10:37:02;98806.81;;;27.24;40.00
76156;BME280;64906;51.290;7.348;2023-07-13T10:39:28;98809.91;;;27.22;39.82
76156;BME280;64906;51.290;7.348;2023-07-13T10:41:59;98801.25;;;27.24;39.92
76156;BME280;64906;51.290;7.348;2023-07-13T10:44:28;98814.91;;;27.08;40.04
76156;BME280;64906;51.290;7.348;2023-07-13T10:47:00;98822.22;;;27.13;40.07
76156;BME280;64906;51.290;7.348;2023-07-13T10:49:30;98808.97;;;27.18;39.69
76156;BME280;64906;51.290;7.348;2023-07-13T10:51:57;98814.31;;;27.23;39.83
76156;BME280;64906;51.290;7.348;2023-07-13T10:54:28;98813.84;;;27.21;39.60
76156;BME280;64906;51.290;7.348;2023-07-13T10:59:45;98821.81;;;27.31;39.39
76156;BME280;64906;51.290;7.348;2023-07-13T11:02:30;98822.97;;;27.22;39.36
76156;BME280;64906;51.290;7.348;2023-07-13T11:04:57;98816.75;;;27.25;39.04
76156;BME280;64906;51.290;7.348;2023-07-13T11:07:26;98824.56;;;27.31;39.26
76156;BME280;64906;51.290;7.348;2023-07-13T11:09:54;98822.47;;;27.28;39.15
76156;BME280;64906;51.290;7.348;2023-07-13T11:28:04;98830.97;;;27.23;39.20
76156;BME280;64906;51.290;7.348;2023-07-13T11:30:36;98820.16;;;27.30;39.23
76156;BME280;64906;51.290;7.348;2023-07-13T11:36:19;98832.88;;;27.31;38.88
76156;BME280;64906;51.290;7.348;2023-07-13T11:39:31;98830.47;;;27.21;39.22
76156;BME280;64906;51.290;7.348;2023-07-13T11:42:00;98825.25;;;27.28;38.65
76156;BME280;64906;51.290;7.348;2023-07-13T11:44:27;98833.06;;;27.26;39.08
76156;BME280;64906;51.290;7.348;2023-07-13T11:46:55;98825.06;;;27.33;38.68
76156;BME280;64906;51.290;7.348;2023-07-13T11:49:23;98833.28;;;27.42;38.82
76156;BME280;64906;51.290;7.348;2023-07-13T11:51:49;98831.97;;;27.48;38.54
76156;BME280;64906;51.290;7.348;2023-07-13T11:54:26;98827.50;;;27.35;38.61
76156;BME280;64906;51.290;7.348;2023-07-13T11:56:52;98822.06;;;27.38;38.52
76156;BME280;64906;51.290;7.348;2023-07-13T11:59:18;98814.69;;;27.42;38.46
76156;BME280;64906;51.290;7.348;2023-07-13T12:01:50;98817.47;;;27.42;38.25
76156;BME280;64906;51.290;7.348;2023-07-13T12:04:26;98814.22;;;27.40;38.26
76156;BME280;64906;51.290;7.348;2023-07-13T12:07:04;98815.78;;;26.71;39.62
76156;BME280;64906;51.290;7.348;2023-07-13T12:09:29;98811.09;;;26.55;39.99
76156;BME280;64906;51.290;7.348;2023-07-13T12:11:57;98807.84;;;26.53;40.07
76156;BME280;64906;51.290;7.348;2023-07-13T12:14:22;98804.72;;;26.54;40.08
76156;BME280;64906;51.290;7.348;2023-07-13T12:16:50;98800.34;;;26.53;39.95
76156;BME280;64906;51.290;7.348;2023-07-13T12:19:33;98800.69;;;26.52;40.00
76156;BME280;64906;51.290;7.348;2023-07-13T12:21:58;98797.56;;;26.53;39.97
76156;BME280;64906;51.290;7.348;2023-07-13T12:24:25;98794.41;;;26.63;40.10
76156;BME280;64906;51.290;7.348;2023-07-13T12:26:58;98795.75;;;26.57;40.09
76156;BME280;64906;51.290;7.348;2023-07-13T12:29:24;98807.50;;;26.54;40.36
76156;BME280;64906;51.290;7.348;2023-07-13T12:31:50;98811.34;;;26.62;40.48
76156;BME280;64906;51.290;7.348;2023-07-13T12:34:19;98816.91;;;26.62;40.39
76156;BME280;64906;51.290;7.348;2023-07-13T12:36:54;98815.44;;;26.64;40.31
76156;BME280;64906;51.290;7.348;2023-07-13T12:39:37;98807.94;;;26.65;40.08
76156;BME280;64906;51.290;7.348;2023-07-13T12:42:21;98818.22;;;26.64;40.20
76156;BME280;64906;51.290;7.348;2023-07-13T12:44:49;98818.06;;;26.69;40.12
76156;BME280;64906;51.290;7.348;2023-07-13T12:47:16;98817.91;;;26.66;39.96
76156;BME280;64906;51.290;7.348;2023-07-13T12:49:43;98812.66;;;26.73;40.05
76156;BME280;64906;51.290;7.348;2023-07-13T12:52:15;98813.00;;;26.71;40.12
76156;BME280;64906;51.290;7.348;2023-07-13T12:54:41;98804.69;;;26.63;40.43
76156;BME280;64906;51.290;7.348;2023-07-13T12:57:14;98809.72;;;26.78;39.98
76156;BME280;64906;51.290;7.348;2023-07-13T12:59:42;98806.31;;;26.72;40.20
76156;BME280;64906;51.290;7.348;2023-07-13T13:02:26;98806.63;;;26.71;40.33
76156;BME280;64906;51.290;7.348;2023-07-13T13:04:55;98807.13;;;26.73;40.32
76156;BME280;64906;51.290;7.348;2023-07-13T13:07:21;98805.81;;;26.70;40.57
76156;BME280;64906;51.290;7.348;2023-07-13T13:09:46;98817.09;;;26.65;40.44
76156;BME280;64906;51.290;7.348;2023-07-13T13:12:12;98810.09;;;26.68;40.77
76156;BME280;64906;51.290;7.348;2023-07-13T13:14:37;98813.66;;;26.68;40.38
76156;BME280;64906;51.290;7.348;2023-07-13T13:17:21;98809.72;;;26.78;40.37
76156;BME280;64906;51.290;7.348;2023-07-13T13:19:48;98812.50;;;26.69;40.70
76156;BME280;64906;51.290;7.348;2023-07-13T13:22:13;98823.94;;;26.68;40.79
76156;BME280;64906;51.290;7.348;2023-07-13T13:24:39;98824.72;;;26.68;40.73
76156;BME280;64906;51.290;7.348;2023-07-13T13:27:04;98833.34;;;26.75;40.44
76156;BME280;64906;51.290;7.348;2023-07-13T13:29:39;98815.91;;;26.75;40.35
76156;BME280;64906;51.290;7.348;2023-07-13T13:32:09;98825.53;;;26.69;40.30